This is the latest recevied weather packets stored in our database for station/object DL8BNG-13. If no packets are shown the sender has not sent any weather packets the latest 10 day(s).
| Time | Temp. | Humidity | Pressure | Rain* | Wind** | Luminosity | Snow |
|---|---|---|---|---|---|---|---|
| 1777369502 | 20.56° C | 33% | - | 0 mm | - | - | - |
| 1777368602 | 19.44° C | 34% | - | 0 mm | - | - | - |
| 1777367703 | 18.89° C | 35% | - | 0 mm | - | - | - |
| 1777365904 | 17.22° C | 36% | - | 0 mm | - | - | - |
| 1777365002 | 17.78° C | 37% | - | 0 mm | - | - | - |
| 1777364104 | 16.67° C | 37% | - | 0 mm | - | - | - |
| 1777363202 | 16.11° C | 38% | - | 0 mm | - | - | - |
| 1777362303 | 15.56° C | 38% | - | 0 mm | - | - | - |
| 1777361403 | 15.56° C | 39% | - | 0 mm | - | - | - |
| 1777360503 | 15.56° C | 39% | - | 0 mm | - | - | - |
| 1777359603 | 14.44° C | 41% | - | 0 mm | - | - | - |
| 1777358703 | 13.89° C | 42% | - | 0 mm | - | - | - |
| 1777357803 | 13.33° C | 43% | - | 0 mm | - | - | - |
| 1777356903 | 13.33° C | 44% | - | 0 mm | - | - | - |
| 1777356002 | 12.78° C | 45% | - | 0 mm | - | - | - |
| 1777355103 | 12.22° C | 48% | - | 0 mm | - | - | - |
| 1777354202 | 10° C | 53% | - | 0 mm | - | - | - |
| 1777353302 | 9.44° C | 55% | - | 0 mm | - | - | - |
| 1777352403 | 8.89° C | 56% | - | 0 mm | - | - | - |
| 1777351502 | 8.89° C | 55% | - | 0 mm | - | - | - |
| 1777350602 | 8.89° C | 55% | - | 0 mm | - | - | - |
| 1777349702 | 8.89° C | 56% | - | 0 mm | - | - | - |
| 1777348803 | 8.89° C | 56% | - | 0 mm | - | - | - |
| 1777347903 | 8.33° C | 57% | - | 0 mm | - | - | - |
| 1777347003 | 8.89° C | 56% | - | 0 mm | - | - | - |
* Rain since midnight (hover to see other rain measurements)
** Current wind speed in m/s (hover to see current wind gust speed)